Time;durP1;ratioP1;P1;durP2;ratioP2;P2;SDS_P1;SDS_P2;PMS_P1;PMS_P2;Temp;Humidity;BMP_temperature;BMP_pressure;BME280_temperature;BME280_humidity;BME280_pressure;Samples;Min_cycle;Max_cycle;Signal;HPM_P1;HPM_P2
2021/09/05 00:01:32;;;;;;;;;6.33;5.00;;;;;;;;5015280;28;45410;-82
2021/09/05 00:04:01;;;;;;;;;6.00;6.00;;;;;;;;5018127;28;46126;-82
2021/09/05 00:06:27;;;;;;;;;4.00;4.00;;;;;;;;5015528;28;45478;-82
2021/09/05 00:08:52;;;;;;;;;5.00;5.00;;;;;;;;5015866;28;45433;-81
2021/09/05 00:11:17;;;;;;;;;5.25;4.00;;;;;;;;5014922;28;45423;-82
2021/09/05 00:13:43;;;;;;;;;8.33;5.67;;;;;;;;5015161;28;45483;-82
2021/09/05 00:16:08;;;;;;;;;6.00;6.00;;;;;;;;5021285;28;46422;-82
2021/09/05 00:18:33;;;;;;;;;9.00;6.00;;;;;;;;5020001;28;46692;-82
2021/09/05 00:20:58;;;;;;;;;5.67;5.00;;;;;;;;5019123;28;45438;-82
2021/09/05 00:23:23;;;;;;;;;7.67;7.00;;;;;;;;5017718;28;46208;-82
2021/09/05 00:25:49;;;;;;;;;7.00;7.00;;;;;;;;5017230;28;45494;-82
2021/09/05 00:28:14;;;;;;;;;8.33;6.00;;;;;;;;5018343;28;45611;-82
2021/09/05 00:30:39;;;;;;;;;5.00;5.00;;;;;;;;5025347;28;45484;-81
2021/09/05 00:33:07;;;;;;;;;9.00;6.33;;;;;;;;5018999;28;48266;-82
2021/09/05 00:35:33;;;;;;;;;7.50;7.50;;;;;;;;5018788;28;49000;-82
2021/09/05 00:37:58;;;;;;;;;6.00;6.00;;;;;;;;5017121;28;45529;-82
2021/09/05 00:40:23;;;;;;;;;7.33;7.33;;;;;;;;5016093;28;45468;-83
2021/09/05 00:42:48;;;;;;;;;12.25;7.00;;;;;;;;5026428;28;45566;-82
2021/09/05 00:45:14;;;;;;;;;9.00;8.33;;;;;;;;5030786;28;45469;-82
2021/09/05 00:47:39;;;;;;;;;10.33;9.33;;;;;;;;5026730;28;45548;-82
2021/09/05 00:50:05;;;;;;;;;10.00;7.25;;;;;;;;5023794;28;45470;-82
2021/09/05 00:52:30;;;;;;;;;10.00;8.00;;;;;;;;5025445;28;47037;-82
2021/09/05 00:54:55;;;;;;;;;8.00;8.00;;;;;;;;5018028;28;45541;-82
2021/09/05 00:57:22;;;;;;;;;8.33;6.33;;;;;;;;5025997;28;45493;-82
2021/09/05 00:59:50;;;;;;;;;10.50;9.50;;;;;;;;5032878;28;45495;-82
2021/09/05 01:02:15;;;;;;;;;7.00;6.75;;;;;;;;5026110;28;47098;-82
2021/09/05 01:04:41;;;;;;;;;7.00;7.00;;;;;;;;5014795;28;45458;-82
2021/09/05 01:07:07;;;;;;;;;9.50;9.00;;;;;;;;5032871;28;45332;-82
2021/09/05 01:09:34;;;;;;;;;10.75;8.25;;;;;;;;5032660;28;45492;-82
2021/09/05 01:11:59;;;;;;;;;11.75;10.25;;;;;;;;5029421;28;46039;-82
2021/09/05 01:14:25;;;;;;;;;7.50;7.50;;;;;;;;5033324;28;45429;-82
2021/09/05 01:16:50;;;;;;;;;11.75;9.75;;;;;;;;5030960;28;45560;-82
2021/09/05 01:19:17;;;;;;;;;10.00;8.50;;;;;;;;5033804;28;45449;-82
2021/09/05 01:21:43;;;;;;;;;7.75;7.75;;;;;;;;5031462;28;48287;-82
2021/09/05 01:24:09;;;;;;;;;12.00;11.50;;;;;;;;5031106;28;45867;-82
2021/09/05 01:26:35;;;;;;;;;13.00;10.50;;;;;;;;5031052;28;45644;-82
2021/09/05 01:29:01;;;;;;;;;12.50;11.50;;;;;;;;5030504;28;45420;-82
2021/09/05 01:31:35;;;;;;;;;15.50;11.25;;;;;;;;5034863;28;46642;-82
2021/09/05 01:34:00;;;;;;;;;13.75;10.00;;;;;;;;5046127;28;45859;-81
2021/09/05 01:36:25;;;;;;;;;13.25;11.75;;;;;;;;5027557;28;45726;-82
2021/09/05 01:38:50;;;;;;;;;14.00;12.00;;;;;;;;5029991;28;48349;-82
2021/09/05 01:41:16;;;;;;;;;11.00;9.00;;;;;;;;5031114;28;45461;-81
2021/09/05 01:43:41;;;;;;;;;11.00;11.00;;;;;;;;5033097;28;45755;-81
2021/09/05 01:46:06;;;;;;;;;13.67;13.33;;;;;;;;5030556;28;45521;-82
2021/09/05 01:48:31;;;;;;;;;23.00;15.67;;;;;;;;5030180;28;45506;-81
2021/09/05 01:50:58;;;;;;;;;19.33;15.67;;;;;;;;5031133;28;45400;-82
2021/09/05 01:53:23;;;;;;;;;22.75;17.00;;;;;;;;5031052;28;45456;-82
2021/09/05 01:55:48;;;;;;;;;19.67;17.67;;;;;;;;5031476;28;45463;-82
2021/09/05 01:58:14;;;;;;;;;20.00;19.00;;;;;;;;5032320;28;45490;-82
2021/09/05 02:00:39;;;;;;;;;22.00;20.33;;;;;;;;5029858;28;45433;-80
2021/09/05 02:03:04;;;;;;;;;27.25;18.75;;;;;;;;5030224;28;45551;-82
2021/09/05 02:05:29;;;;;;;;;22.67;19.33;;;;;;;;5030636;28;45583;-81
2021/09/05 02:07:54;;;;;;;;;28.33;24.33;;;;;;;;5029472;28;45440;-81
2021/09/05 02:10:20;;;;;;;;;23.67;20.33;;;;;;;;5032504;28;47153;-82
2021/09/05 02:12:45;;;;;;;;;22.00;20.33;;;;;;;;5030166;28;45636;-82
2021/09/05 02:15:10;;;;;;;;;23.33;19.00;;;;;;;;5030382;28;45651;-81
2021/09/05 02:17:35;;;;;;;;;23.00;21.67;;;;;;;;5029103;28;45566;-81
2021/09/05 02:20:00;;;;;;;;;24.33;23.33;;;;;;;;5030958;28;46276;-82
2021/09/05 02:22:26;;;;;;;;;25.00;21.33;;;;;;;;5034604;28;45493;-81
2021/09/05 02:24:51;;;;;;;;;26.00;20.00;;;;;;;;5030559;28;45648;-82
2021/09/05 02:27:16;;;;;;;;;26.00;23.67;;;;;;;;5029718;28;45736;-81
2021/09/05 02:29:41;;;;;;;;;23.67;23.00;;;;;;;;5030181;28;46134;-82
2021/09/05 02:32:07;;;;;;;;;31.25;24.25;;;;;;;;5030294;28;45430;-81
2021/09/05 02:34:32;;;;;;;;;26.33;22.67;;;;;;;;5031967;28;45460;-82
2021/09/05 02:36:57;;;;;;;;;25.00;25.00;;;;;;;;5029042;28;45626;-82
2021/09/05 02:39:22;;;;;;;;;27.67;23.33;;;;;;;;5030554;28;46483;-81
2021/09/05 02:41:47;;;;;;;;;24.33;24.00;;;;;;;;5030127;28;45275;-81
2021/09/05 02:44:13;;;;;;;;;32.00;23.67;;;;;;;;5030175;28;45451;-82
2021/09/05 02:46:38;;;;;;;;;27.67;26.67;;;;;;;;5031399;28;45299;-81
2021/09/05 02:49:03;;;;;;;;;29.67;22.00;;;;;;;;5031588;28;46099;-82
2021/09/05 02:51:29;;;;;;;;;23.67;23.67;;;;;;;;5030228;28;45434;-81
2021/09/05 02:53:54;;;;;;;;;25.25;23.75;;;;;;;;5029600;28;45431;-82
2021/09/05 02:56:19;;;;;;;;;31.33;26.67;;;;;;;;5029986;28;45521;-82
2021/09/05 02:58:44;;;;;;;;;29.33;24.67;;;;;;;;5032136;28;46098;-82
2021/09/05 03:01:10;;;;;;;;;29.67;24.00;;;;;;;;5031630;28;45545;-81
2021/09/05 03:03:35;;;;;;;;;24.67;23.00;;;;;;;;5030321;28;45291;-81
2021/09/05 03:06:00;;;;;;;;;26.67;24.33;;;;;;;;5029297;28;45491;-81
2021/09/05 03:08:25;;;;;;;;;29.67;26.00;;;;;;;;5029672;28;46530;-81
2021/09/05 03:10:51;;;;;;;;;29.00;25.67;;;;;;;;5030901;28;45378;-81
2021/09/05 03:13:16;;;;;;;;;28.00;25.50;;;;;;;;5032599;28;45291;-81
2021/09/05 03:15:42;;;;;;;;;28.67;23.67;;;;;;;;5029622;28;45350;-82
2021/09/05 03:18:07;;;;;;;;;30.50;22.50;;;;;;;;5030076;28;46204;-81
2021/09/05 03:20:32;;;;;;;;;30.00;26.00;;;;;;;;5030227;28;45516;-81
2021/09/05 03:22:57;;;;;;;;;28.33;24.33;;;;;;;;5029675;28;45339;-81
2021/09/05 03:25:23;;;;;;;;;26.67;23.33;;;;;;;;5032202;28;45417;-82
2021/09/05 03:27:48;;;;;;;;;24.67;22.67;;;;;;;;5030062;28;48444;-82
2021/09/05 03:30:13;;;;;;;;;31.67;24.67;;;;;;;;5028485;28;45547;-81
2021/09/05 03:32:38;;;;;;;;;25.00;24.00;;;;;;;;5028931;28;45566;-81
2021/09/05 03:35:03;;;;;;;;;28.33;24.67;;;;;;;;5030124;28;45861;-81
2021/09/05 03:37:29;;;;;;;;;27.25;25.00;;;;;;;;5031799;28;47242;-81
2021/09/05 03:39:54;;;;;;;;;27.33;25.00;;;;;;;;5029833;28;45558;-81
2021/09/05 03:42:19;;;;;;;;;27.00;22.67;;;;;;;;5028516;28;45410;-82
2021/09/05 03:44:44;;;;;;;;;33.00;26.67;;;;;;;;5029867;28;45340;-81
2021/09/05 03:47:10;;;;;;;;;25.00;21.00;;;;;;;;5029701;28;45632;-82
2021/09/05 03:49:35;;;;;;;;;25.67;22.33;;;;;;;;5033747;28;45400;-81
2021/09/05 03:52:00;;;;;;;;;27.67;23.67;;;;;;;;5035477;28;45463;-82
2021/09/05 03:54:25;;;;;;;;;26.00;24.00;;;;;;;;5032719;28;45951;-81
2021/09/05 03:56:51;;;;;;;;;26.67;23.67;;;;;;;;5032527;28;48189;-82
2021/09/05 03:59:16;;;;;;;;;26.67;23.00;;;;;;;;5032791;28;45509;-81
2021/09/05 04:01:41;;;;;;;;;27.67;24.00;;;;;;;;5033804;28;45424;-81
2021/09/05 04:04:07;;;;;;;;;28.25;23.25;;;;;;;;5034112;28;45266;-81
2021/09/05 04:06:32;;;;;;;;;24.75;23.50;;;;;;;;5031289;28;47463;-81
2021/09/05 04:09:00;;;;;;;;;25.25;23.50;;;;;;;;5034059;28;45562;-81
2021/09/05 04:11:26;;;;;;;;;23.00;22.00;;;;;;;;5034597;28;45550;-82
2021/09/05 04:13:51;;;;;;;;;27.00;21.67;;;;;;;;5032363;28;45620;-81
2021/09/05 04:16:16;;;;;;;;;27.00;24.33;;;;;;;;5034718;28;45425;-82
2021/09/05 04:18:41;;;;;;;;;26.67;23.67;;;;;;;;5032649;28;45778;-82
2021/09/05 04:21:06;;;;;;;;;22.33;21.00;;;;;;;;5032251;28;45422;-81
2021/09/05 04:23:32;;;;;;;;;29.67;24.33;;;;;;;;5032758;28;45411;-82
2021/09/05 04:25:57;;;;;;;;;28.50;23.25;;;;;;;;5032981;28;45526;-82
2021/09/05 04:28:22;;;;;;;;;27.00;22.25;;;;;;;;5035538;28;45497;-82
2021/09/05 04:30:48;;;;;;;;;23.00;21.67;;;;;;;;5032632;28;45540;-82
2021/09/05 04:33:13;;;;;;;;;27.67;22.33;;;;;;;;5034212;28;45545;-82
2021/09/05 04:35:38;;;;;;;;;21.67;20.33;;;;;;;;5032735;28;45826;-82
2021/09/05 04:38:03;;;;;;;;;22.25;20.75;;;;;;;;5032488;28;45501;-81
2021/09/05 04:40:29;;;;;;;;;30.33;24.67;;;;;;;;5035881;28;45540;-81
2021/09/05 04:42:54;;;;;;;;;30.00;25.67;;;;;;;;5032522;28;45538;-81
2021/09/05 04:45:19;;;;;;;;;23.33;20.67;;;;;;;;5031994;28;45505;-82
2021/09/05 04:47:44;;;;;;;;;26.00;21.67;;;;;;;;5032249;28;45553;-81
2021/09/05 04:50:10;;;;;;;;;24.75;24.00;;;;;;;;5031340;28;45711;-81
2021/09/05 04:52:35;;;;;;;;;28.00;23.75;;;;;;;;5034305;28;45632;-81
2021/09/05 04:55:00;;;;;;;;;25.00;22.67;;;;;;;;5033735;28;46072;-82
2021/09/05 04:57:25;;;;;;;;;20.25;20.00;;;;;;;;5031694;28;45387;-81
2021/09/05 04:59:50;;;;;;;;;20.33;19.33;;;;;;;;5031469;28;46096;-81
2021/09/05 05:02:16;;;;;;;;;29.00;25.00;;;;;;;;5031913;28;45369;-81
2021/09/05 05:04:41;;;;;;;;;22.75;20.50;;;;;;;;5032684;28;47346;-81
2021/09/05 05:07:06;;;;;;;;;22.00;21.33;;;;;;;;5032540;28;45353;-82
2021/09/05 05:09:32;;;;;;;;;22.75;21.50;;;;;;;;5031293;28;45466;-82
2021/09/05 05:11:57;;;;;;;;;23.25;21.75;;;;;;;;5031558;28;45523;-81
2021/09/05 05:14:22;;;;;;;;;26.00;20.33;;;;;;;;5031278;28;46740;-82
2021/09/05 05:16:48;;;;;;;;;25.25;22.75;;;;;;;;5032694;28;45406;-82
2021/09/05 05:19:13;;;;;;;;;24.33;20.00;;;;;;;;5033718;28;45495;-81
2021/09/05 05:21:38;;;;;;;;;20.33;19.67;;;;;;;;5030114;28;45465;-82
2021/09/05 05:24:03;;;;;;;;;22.33;21.00;;;;;;;;5032073;28;46078;-82
2021/09/05 05:26:29;;;;;;;;;33.25;27.00;;;;;;;;5030384;28;45570;-81
2021/09/05 05:28:57;;;;;;;;;29.00;24.50;;;;;;;;5032466;28;45364;-82
2021/09/05 05:31:22;;;;;;;;;26.50;22.75;;;;;;;;5035079;28;45440;-82
2021/09/05 05:33:48;;;;;;;;;27.00;22.00;;;;;;;;5030129;28;47190;-83
2021/09/05 05:36:13;;;;;;;;;22.00;21.00;;;;;;;;5030829;28;45691;-82
2021/09/05 05:38:42;;;;;;;;;23.00;21.67;;;;;;;;5030762;28;45440;-82
2021/09/05 05:41:07;;;;;;;;;24.25;21.00;;;;;;;;5030478;28;45439;-81
2021/09/05 05:43:33;;;;;;;;;24.75;20.75;;;;;;;;5032762;28;47168;-82
2021/09/05 05:45:58;;;;;;;;;22.75;20.75;;;;;;;;5030985;28;45321;-82
2021/09/05 05:48:23;;;;;;;;;27.67;22.67;;;;;;;;5031408;28;51067;-82
2021/09/05 05:50:49;;;;;;;;;21.00;20.25;;;;;;;;5030765;28;45508;-82
2021/09/05 05:53:15;;;;;;;;;22.75;20.00;;;;;;;;5031030;28;45472;-81
2021/09/05 05:55:40;;;;;;;;;23.75;21.25;;;;;;;;5033669;28;45493;-81
2021/09/05 05:58:05;;;;;;;;;25.25;22.00;;;;;;;;5026834;28;45569;-81
2021/09/05 06:00:31;;;;;;;;;24.00;20.00;;;;;;;;5030044;28;45641;-81
2021/09/05 06:02:56;;;;;;;;;27.25;21.50;;;;;;;;5029951;28;47166;-82
2021/09/05 06:05:21;;;;;;;;;25.33;22.67;;;;;;;;5030596;28;45513;-82
2021/09/05 06:07:47;;;;;;;;;24.33;22.00;;;;;;;;5031427;28;48394;-82
2021/09/05 06:10:12;;;;;;;;;29.00;23.50;;;;;;;;5032518;28;45493;-81
2021/09/05 06:12:37;;;;;;;;;28.25;24.25;;;;;;;;5031066;28;46035;-81
2021/09/05 06:15:03;;;;;;;;;32.00;26.33;;;;;;;;5032248;28;45565;-82
2021/09/05 06:17:28;;;;;;;;;25.25;22.00;;;;;;;;5032423;28;45631;-81
2021/09/05 06:19:53;;;;;;;;;30.33;25.67;;;;;;;;5031386;28;45584;-82
2021/09/05 06:22:19;;;;;;;;;25.67;21.67;;;;;;;;5032710;28;46130;-81
2021/09/05 06:24:44;;;;;;;;;32.25;25.50;;;;;;;;5029786;28;45507;-81
2021/09/05 06:27:09;;;;;;;;;28.67;22.67;;;;;;;;5031047;28;45489;-82
2021/09/05 06:29:34;;;;;;;;;22.25;21.75;;;;;;;;5030923;28;45447;-81
2021/09/05 06:31:59;;;;;;;;;27.00;20.67;;;;;;;;5029126;28;45780;-81
2021/09/05 06:34:25;;;;;;;;;28.00;25.00;;;;;;;;5032091;28;45479;-82
2021/09/05 06:36:50;;;;;;;;;27.00;22.25;;;;;;;;5030929;28;45338;-81
2021/09/05 06:39:15;;;;;;;;;22.67;22.67;;;;;;;;5030755;28;45417;-81
2021/09/05 06:41:40;;;;;;;;;25.33;20.67;;;;;;;;5028925;28;46319;-81
2021/09/05 06:44:05;;;;;;;;;27.00;23.67;;;;;;;;5018422;28;45688;-82
2021/09/05 06:46:31;;;;;;;;;26.67;23.67;;;;;;;;5033522;28;45647;-81
2021/09/05 06:48:56;;;;;;;;;28.33;26.67;;;;;;;;5030541;28;45403;-81
2021/09/05 06:51:21;;;;;;;;;42.67;35.00;;;;;;;;5030368;28;46110;-81
2021/09/05 06:53:46;;;;;;;;;54.00;42.00;;;;;;;;5029000;28;45850;-82
2021/09/05 06:56:12;;;;;;;;;69.00;53.33;;;;;;;;5030355;28;45499;-81
2021/09/05 06:58:38;;;;;;;;;87.33;74.33;;;;;;;;5031405;28;45449;-81
2021/09/05 07:01:03;;;;;;;;;78.75;65.00;;;;;;;;5025402;28;47495;-81
2021/09/05 07:03:28;;;;;;;;;72.33;53.67;;;;;;;;5029237;28;45493;-81
2021/09/05 07:05:53;;;;;;;;;85.00;75.33;;;;;;;;5030270;28;45497;-82
2021/09/05 07:08:19;;;;;;;;;67.00;52.00;;;;;;;;5031068;28;45434;-82
2021/09/05 07:10:45;;;;;;;;;61.75;45.00;;;;;;;;5031991;28;45788;-81
2021/09/05 07:13:10;;;;;;;;;91.00;65.33;;;;;;;;5031428;28;45322;-82
2021/09/05 07:15:35;;;;;;;;;74.33;51.00;;;;;;;;5030330;28;45499;-81
2021/09/05 07:18:01;;;;;;;;;51.00;41.00;;;;;;;;5029851;28;45359;-82
2021/09/05 07:20:26;;;;;;;;;51.25;39.75;;;;;;;;5029690;28;46429;-82
2021/09/05 07:22:51;;;;;;;;;42.00;33.50;;;;;;;;5030937;28;45579;-81
2021/09/05 07:25:16;;;;;;;;;40.67;32.67;;;;;;;;5027375;28;45787;-81
2021/09/05 07:27:42;;;;;;;;;27.33;23.33;;;;;;;;5024376;28;45479;-82
2021/09/05 07:30:07;;;;;;;;;27.67;25.33;;;;;;;;5028092;28;45496;-81
2021/09/05 07:32:32;;;;;;;;;34.75;26.50;;;;;;;;5030036;28;45496;-82
2021/09/05 07:34:58;;;;;;;;;34.33;27.67;;;;;;;;5030894;28;46133;-82
2021/09/05 07:37:23;;;;;;;;;36.33;27.33;;;;;;;;5029994;28;45562;-83
2021/09/05 07:39:48;;;;;;;;;31.75;26.00;;;;;;;;5031809;28;47512;-80
2021/09/05 07:42:13;;;;;;;;;30.00;25.00;;;;;;;;5033308;28;45520;-81
2021/09/05 07:44:39;;;;;;;;;27.50;27.25;;;;;;;;5031961;28;48711;-81
2021/09/05 07:47:04;;;;;;;;;26.67;24.33;;;;;;;;5033032;28;45462;-82
2021/09/05 07:49:29;;;;;;;;;28.67;26.67;;;;;;;;5035265;28;48240;-81
2021/09/05 07:51:54;;;;;;;;;30.33;28.00;;;;;;;;5033371;28;45461;-81
2021/09/05 07:54:20;;;;;;;;;32.50;28.75;;;;;;;;5033729;28;45456;-82
2021/09/05 07:56:45;;;;;;;;;28.67;24.33;;;;;;;;5033307;28;45513;-82
2021/09/05 07:59:10;;;;;;;;;32.67;27.67;;;;;;;;5033284;28;45361;-83
2021/09/05 08:01:35;;;;;;;;;40.33;29.67;;;;;;;;5034545;28;45325;-82
2021/09/05 08:04:01;;;;;;;;;28.67;28.33;;;;;;;;5034004;28;45605;-80
2021/09/05 08:06:26;;;;;;;;;27.00;27.00;;;;;;;;5022996;28;45570;-82
2021/09/05 08:08:51;;;;;;;;;33.00;29.25;;;;;;;;5032107;28;45532;-82
2021/09/05 08:11:17;;;;;;;;;31.00;26.75;;;;;;;;5032638;28;45513;-82
2021/09/05 08:13:42;;;;;;;;;35.00;31.33;;;;;;;;5035487;28;45307;-83
2021/09/05 08:16:07;;;;;;;;;32.33;31.33;;;;;;;;5029295;28;45428;-83
2021/09/05 08:18:37;;;;;;;;;33.00;28.25;;;;;;;;5032273;28;45495;-80
2021/09/05 08:21:03;;;;;;;;;31.00;28.25;;;;;;;;5034169;28;45989;-83
2021/09/05 08:23:28;;;;;;;;;29.50;26.00;;;;;;;;5032698;28;45520;-81
2021/09/05 08:25:53;;;;;;;;;27.00;27.00;;;;;;;;5033059;28;45634;-82
2021/09/05 08:28:19;;;;;;;;;33.00;30.50;;;;;;;;5033638;28;45486;-82
2021/09/05 08:30:44;;;;;;;;;33.50;29.50;;;;;;;;5033167;28;45377;-83
2021/09/05 08:33:10;;;;;;;;;29.00;27.75;;;;;;;;5033059;28;45457;-83
2021/09/05 08:35:36;;;;;;;;;38.50;29.00;;;;;;;;5029582;28;45944;-83
2021/09/05 08:38:01;;;;;;;;;30.00;28.00;;;;;;;;5021978;28;46371;-83
2021/09/05 08:40:27;;;;;;;;;31.33;27.67;;;;;;;;5034825;28;45688;-83
2021/09/05 08:42:52;;;;;;;;;29.25;26.50;;;;;;;;5030642;28;45637;-83
2021/09/05 08:45:18;;;;;;;;;31.75;28.75;;;;;;;;5032506;28;45324;-83
2021/09/05 08:47:43;;;;;;;;;27.33;25.00;;;;;;;;5032198;28;45926;-82
2021/09/05 08:50:08;;;;;;;;;32.00;28.25;;;;;;;;5025048;28;45663;-81
2021/09/05 08:52:34;;;;;;;;;35.75;30.25;;;;;;;;5032254;28;45477;-83
2021/09/05 08:54:59;;;;;;;;;27.00;25.50;;;;;;;;5033011;28;45465;-83
2021/09/05 08:57:24;;;;;;;;;24.25;23.50;;;;;;;;5033202;28;47661;-82
2021/09/05 08:59:50;;;;;;;;;28.00;25.67;;;;;;;;5031206;28;45874;-83
2021/09/05 09:02:15;;;;;;;;;31.00;27.00;;;;;;;;5031378;28;45450;-83
2021/09/05 09:04:41;;;;;;;;;23.33;23.00;;;;;;;;5032206;28;45487;-83
2021/09/05 09:07:16;;;;;;;;;28.00;26.25;;;;;;;;5033121;28;46414;-82
2021/09/05 09:09:58;;;;;;;;;24.50;22.25;;;;;;;;5031795;28;45944;-82
2021/09/05 09:12:35;;;;;;;;;24.50;23.75;;;;;;;;5031538;28;45546;-83
2021/09/05 09:15:00;;;;;;;;;30.25;24.75;;;;;;;;5031112;28;45597;-83
2021/09/05 09:17:35;;;;;;;;;28.00;23.00;;;;;;;;5032797;28;47299;-83
2021/09/05 09:20:01;;;;;;;;;31.25;23.50;;;;;;;;5025475;28;45956;-82
2021/09/05 09:22:26;;;;;;;;;26.33;24.00;;;;;;;;5035153;28;45471;-83
2021/09/05 09:24:51;;;;;;;;;28.67;27.00;;;;;;;;5032554;28;46718;-83
2021/09/05 09:27:16;;;;;;;;;26.00;21.00;;;;;;;;5032258;28;47274;-83
2021/09/05 09:29:42;;;;;;;;;28.67;28.67;;;;;;;;5029644;28;45286;-82
2021/09/05 09:32:09;;;;;;;;;35.00;32.00;;;;;;;;5030449;28;45630;-83
2021/09/05 09:34:38;;;;;;;;;25.25;24.25;;;;;;;;5032338;28;45368;-83
2021/09/05 09:37:10;;;;;;;;;31.25;25.75;;;;;;;;5028196;28;46564;-82
2021/09/05 09:39:41;;;;;;;;;35.00;28.75;;;;;;;;5032532;28;45883;-83
2021/09/05 09:42:07;;;;;;;;;30.00;26.25;;;;;;;;5029162;28;45691;-83
2021/09/05 09:44:32;;;;;;;;;33.67;31.00;;;;;;;;5030090;28;45562;-83
2021/09/05 09:47:06;;;;;;;;;33.67;28.67;;;;;;;;5028828;28;47477;-83
2021/09/05 09:49:45;;;;;;;;;29.50;27.50;;;;;;;;5029518;28;45841;-83
2021/09/05 09:52:10;;;;;;;;;28.50;27.50;;;;;;;;5031672;28;45549;-83
2021/09/05 09:54:36;;;;;;;;;36.67;30.33;;;;;;;;5029857;28;45486;-82
2021/09/05 09:57:02;;;;;;;;;24.00;23.00;;;;;;;;5030786;28;48109;-83
2021/09/05 09:59:27;;;;;;;;;34.25;30.00;;;;;;;;5030595;28;45495;-82
2021/09/05 10:01:52;;;;;;;;;36.00;30.33;;;;;;;;5030900;28;45595;-82
2021/09/05 10:04:17;;;;;;;;;34.00;29.75;;;;;;;;5032883;28;45423;-81
2021/09/05 10:06:43;;;;;;;;;30.50;28.00;;;;;;;;5031532;28;48701;-82
2021/09/05 10:09:09;;;;;;;;;25.75;23.75;;;;;;;;5030558;28;45441;-82
2021/09/05 10:11:35;;;;;;;;;22.67;20.67;;;;;;;;5030245;28;45677;-82
2021/09/05 10:14:00;;;;;;;;;30.25;27.25;;;;;;;;5029242;28;45505;-82
2021/09/05 10:16:25;;;;;;;;;27.25;24.75;;;;;;;;5030629;28;46820;-82
2021/09/05 10:18:51;;;;;;;;;29.25;27.50;;;;;;;;5030243;28;45470;-83
2021/09/05 10:21:18;;;;;;;;;28.50;27.25;;;;;;;;5031414;28;45447;-82
2021/09/05 10:24:01;;;;;;;;;34.00;27.75;;;;;;;;5030567;28;45309;-82
2021/09/05 10:26:27;;;;;;;;;24.50;20.50;;;;;;;;5025980;28;48753;-82
2021/09/05 10:28:53;;;;;;;;;25.25;24.25;;;;;;;;5029876;28;45556;-82
2021/09/05 10:31:23;;;;;;;;;26.50;24.75;;;;;;;;5033081;28;45430;-82
2021/09/05 10:33:48;;;;;;;;;23.25;23.00;;;;;;;;5018951;28;45601;-82
2021/09/05 10:36:14;;;;;;;;;27.67;26.67;;;;;;;;5025001;28;46096;-82
2021/09/05 10:38:41;;;;;;;;;30.25;27.75;;;;;;;;5027948;28;45641;-82
2021/09/05 10:41:08;;;;;;;;;23.00;21.25;;;;;;;;5029991;28;45646;-81
2021/09/05 10:43:49;;;;;;;;;19.25;19.25;;;;;;;;5033425;28;45373;-81
2021/09/05 10:46:21;;;;;;;;;27.25;23.00;;;;;;;;5031868;28;45477;-81
2021/09/05 10:48:57;;;;;;;;;22.25;20.50;;;;;;;;5029864;28;46100;-82
2021/09/05 10:51:27;;;;;;;;;17.25;17.25;;;;;;;;5031346;28;45416;-82
2021/09/05 10:53:56;;;;;;;;;19.00;16.75;;;;;;;;5029195;28;45614;-82
2021/09/05 10:56:22;;;;;;;;;24.00;20.25;;;;;;;;5028860;28;46625;-82
2021/09/05 10:59:29;;;;;;;;;22.75;19.00;;;;;;;;5029286;28;46064;-82
2021/09/05 11:01:54;;;;;;;;;17.75;16.50;;;;;;;;5019364;28;46033;-81
2021/09/05 11:04:21;;;;;;;;;17.33;15.67;;;;;;;;5032971;28;45390;-81
2021/09/05 11:06:53;;;;;;;;;16.75;16.75;;;;;;;;5030671;28;47308;-82
2021/09/05 11:09:22;;;;;;;;;16.75;15.00;;;;;;;;5029242;28;45842;-82
2021/09/05 11:11:58;;;;;;;;;21.25;20.50;;;;;;;;5028577;28;45620;-82
2021/09/05 11:14:35;;;;;;;;;18.50;17.00;;;;;;;;5029674;28;45581;-81
2021/09/05 11:17:10;;;;;;;;;16.25;15.75;;;;;;;;5024687;28;45569;-81
2021/09/05 11:19:42;;;;;;;;;14.25;13.50;;;;;;;;5031793;28;45670;-81
2021/09/05 11:22:08;;;;;;;;;17.00;15.00;;;;;;;;5032398;28;45473;-82
2021/09/05 11:24:34;;;;;;;;;19.00;18.25;;;;;;;;5028830;28;45579;-82
2021/09/05 11:27:01;;;;;;;;;14.75;14.75;;;;;;;;5029358;28;45669;-82
2021/09/05 11:29:27;;;;;;;;;14.50;14.50;;;;;;;;5030513;28;45437;-82
2021/09/05 11:31:58;;;;;;;;;15.25;15.25;;;;;;;;5030130;28;45603;-82
2021/09/05 11:34:23;;;;;;;;;16.75;16.75;;;;;;;;5032868;28;45429;-82
2021/09/05 11:36:48;;;;;;;;;20.00;18.33;;;;;;;;5029559;28;48427;-83
2021/09/05 11:39:13;;;;;;;;;19.00;17.33;;;;;;;;5029640;28;45473;-83
2021/09/05 11:41:40;;;;;;;;;15.67;15.00;;;;;;;;5028198;28;45471;-83
2021/09/05 11:44:05;;;;;;;;;15.00;13.75;;;;;;;;5027144;28;45303;-83
2021/09/05 11:46:31;;;;;;;;;16.33;14.00;;;;;;;;5032587;28;45756;-83
2021/09/05 11:48:57;;;;;;;;;12.00;12.00;;;;;;;;5029868;28;45491;-83
2021/09/05 11:51:22;;;;;;;;;15.25;11.75;;;;;;;;5029444;28;45308;-83
2021/09/05 11:53:58;;;;;;;;;11.50;11.50;;;;;;;;5029614;28;45430;-83
2021/09/05 11:56:23;;;;;;;;;14.00;14.00;;;;;;;;5028128;28;47633;-83
2021/09/05 11:58:48;;;;;;;;;14.25;14.25;;;;;;;;5031160;28;45472;-90
2021/09/05 12:01:14;;;;;;;;;11.67;11.00;;;;;;;;5031206;28;45554;-83
2021/09/05 12:03:39;;;;;;;;;11.00;11.00;;;;;;;;5029642;28;45457;-83
2021/09/05 12:06:04;;;;;;;;;10.00;9.33;;;;;;;;5029033;28;47373;-83
2021/09/05 12:08:30;;;;;;;;;9.00;9.00;;;;;;;;5026947;28;45434;-81
2021/09/05 12:11:05;;;;;;;;;9.33;9.00;;;;;;;;5033109;28;45505;-82
2021/09/05 12:13:55;;;;;;;;;8.25;8.25;;;;;;;;5032647;28;45592;-81
2021/09/05 12:16:27;;;;;;;;;10.00;10.00;;;;;;;;5035147;28;46170;-82
2021/09/05 12:19:06;;;;;;;;;11.25;11.00;;;;;;;;5030775;28;45528;-82
2021/09/05 12:21:32;;;;;;;;;8.50;8.50;;;;;;;;5032756;28;45441;-80
2021/09/05 12:23:58;;;;;;;;;10.25;9.75;;;;;;;;5021886;28;45466;-82
2021/09/05 12:26:23;;;;;;;;;10.25;9.25;;;;;;;;5026012;28;46240;-83
2021/09/05 12:29:01;;;;;;;;;9.33;9.33;;;;;;;;5018110;28;45340;-83
2021/09/05 12:31:46;;;;;;;;;11.75;10.25;;;;;;;;5022553;28;45459;-83
2021/09/05 12:34:31;;;;;;;;;11.00;11.00;;;;;;;;5016858;28;46075;-82
2021/09/05 12:36:56;;;;;;;;;9.00;8.25;;;;;;;;5019674;28;46265;-82
2021/09/05 12:39:22;;;;;;;;;11.25;11.00;;;;;;;;5018201;28;48556;-82
2021/09/05 12:41:47;;;;;;;;;10.75;10.50;;;;;;;;5020728;28;45449;-81
2021/09/05 12:44:12;;;;;;;;;10.00;10.00;;;;;;;;5018490;28;45629;-82
2021/09/05 12:46:39;;;;;;;;;11.67;10.00;;;;;;;;5027900;28;45564;-82
2021/09/05 12:49:12;;;;;;;;;11.25;10.00;;;;;;;;5032210;28;45809;-81
2021/09/05 12:51:47;;;;;;;;;11.25;11.25;;;;;;;;5032218;28;45513;-82
2021/09/05 12:54:12;;;;;;;;;9.75;9.75;;;;;;;;5019437;28;45657;-82
2021/09/05 12:56:40;;;;;;;;;12.00;11.00;;;;;;;;5033746;28;45626;-82
2021/09/05 12:59:05;;;;;;;;;13.00;11.00;;;;;;;;5032855;28;45535;-82
2021/09/05 13:01:31;;;;;;;;;10.67;10.67;;;;;;;;5034822;28;45442;-82
2021/09/05 13:03:59;;;;;;;;;10.75;10.00;;;;;;;;5030465;28;45499;-82
2021/09/05 13:06:25;;;;;;;;;9.75;9.75;;;;;;;;5031201;28;45935;-81
2021/09/05 13:08:51;;;;;;;;;9.25;9.00;;;;;;;;5032433;28;45493;-82
2021/09/05 13:11:17;;;;;;;;;8.00;8.00;;;;;;;;5032354;28;45411;-82
2021/09/05 13:13:42;;;;;;;;;12.25;9.25;;;;;;;;5030366;28;45374;-82
2021/09/05 13:16:07;;;;;;;;;9.00;8.00;;;;;;;;5032962;28;45592;-82
2021/09/05 13:18:33;;;;;;;;;11.50;10.75;;;;;;;;5031914;28;45506;-82
2021/09/05 13:20:58;;;;;;;;;11.75;11.00;;;;;;;;5030412;28;45275;-83
2021/09/05 13:23:23;;;;;;;;;10.00;10.00;;;;;;;;5027455;28;45333;-81
2021/09/05 13:25:49;;;;;;;;;11.00;10.00;;;;;;;;5031632;28;45769;-82
2021/09/05 13:28:14;;;;;;;;;9.67;9.67;;;;;;;;5036048;28;45547;-82
2021/09/05 13:30:40;;;;;;;;;8.00;8.00;;;;;;;;5031850;28;45438;-82
2021/09/05 13:33:05;;;;;;;;;10.00;8.00;;;;;;;;5030267;28;45281;-82
2021/09/05 13:35:30;;;;;;;;;11.00;10.00;;;;;;;;5028523;28;47633;-82
2021/09/05 13:37:55;;;;;;;;;9.00;9.00;;;;;;;;5032199;28;45350;-82
2021/09/05 13:40:21;;;;;;;;;8.00;8.00;;;;;;;;5035655;28;45385;-83
2021/09/05 13:42:46;;;;;;;;;7.00;7.00;;;;;;;;5031852;28;45415;-83
2021/09/05 13:45:11;;;;;;;;;7.67;6.00;;;;;;;;5029898;28;47296;-82
2021/09/05 13:47:36;;;;;;;;;7.00;6.25;;;;;;;;5031460;28;45474;-84
2021/09/05 13:50:03;;;;;;;;;6.00;6.00;;;;;;;;5031160;28;45300;-83
2021/09/05 13:52:28;;;;;;;;;6.00;6.00;;;;;;;;5027815;28;45553;-84
2021/09/05 13:54:53;;;;;;;;;5.75;5.75;;;;;;;;5029677;28;45542;-84
2021/09/05 13:57:19;;;;;;;;;5.75;5.75;;;;;;;;5030249;28;45696;-84
2021/09/05 13:59:44;;;;;;;;;6.00;6.00;;;;;;;;5030717;28;45510;-82
2021/09/05 14:02:10;;;;;;;;;6.33;6.33;;;;;;;;5030933;28;45320;-84
2021/09/05 14:04:36;;;;;;;;;7.00;7.00;;;;;;;;5029933;28;45332;-82
2021/09/05 14:07:01;;;;;;;;;5.00;5.00;;;;;;;;5034398;28;45648;-83
2021/09/05 14:09:26;;;;;;;;;5.67;5.67;;;;;;;;5031049;28;45305;-83
2021/09/05 14:11:52;;;;;;;;;6.00;6.00;;;;;;;;5030815;28;46717;-84
2021/09/05 14:14:17;;;;;;;;;5.00;5.00;;;;;;;;5019254;28;45911;-84
2021/09/05 14:16:42;;;;;;;;;8.00;8.00;;;;;;;;5033102;28;45526;-84